sensor_id;sensor_type;location;lat;lon;timestamp;pressure;altitude;pressure_sealevel;temperature;humidity
35419;BME280;21525;41.240;16.500;2022-07-29T00:02:09;101110.56;;;34.35;50.21
35419;BME280;21525;41.240;16.500;2022-07-29T00:04:36;101106.19;;;34.42;50.15
35419;BME280;21525;41.240;16.500;2022-07-29T00:07:03;101102.47;;;34.43;50.06
35419;BME280;21525;41.240;16.500;2022-07-29T00:09:29;101106.50;;;34.39;50.46
35419;BME280;21525;41.240;16.500;2022-07-29T00:11:58;101099.63;;;34.02;51.23
35419;BME280;21525;41.240;16.500;2022-07-29T00:14:24;101102.31;;;34.02;51.33
35419;BME280;21525;41.240;16.500;2022-07-29T00:16:50;101097.06;;;34.51;50.09
35419;BME280;21525;41.240;16.500;2022-07-29T00:19:16;101101.63;;;34.00;51.28
35419;BME280;21525;41.240;16.500;2022-07-29T00:21:42;101098.25;;;34.41;49.98
35419;BME280;21525;41.240;16.500;2022-07-29T00:24:08;101096.59;;;34.72;48.91
35419;BME280;21525;41.240;16.500;2022-07-29T00:26:34;101098.44;;;34.55;49.15
35419;BME280;21525;41.240;16.500;2022-07-29T00:29:03;101088.31;;;34.57;49.33
35419;BME280;21525;41.240;16.500;2022-07-29T00:31:29;101099.75;;;34.35;49.97
35419;BME280;21525;41.240;16.500;2022-07-29T00:33:55;101094.88;;;34.39;49.62
35419;BME280;21525;41.240;16.500;2022-07-29T00:36:21;101098.94;;;34.43;49.52
35419;BME280;21525;41.240;16.500;2022-07-29T00:38:49;101096.22;;;34.34;49.27
35419;BME280;21525;41.240;16.500;2022-07-29T00:41:15;101101.25;;;34.29;49.33
35419;BME280;21525;41.240;16.500;2022-07-29T00:43:42;101097.28;;;34.08;49.80
35419;BME280;21525;41.240;16.500;2022-07-29T00:46:08;101106.66;;;33.95;50.36
35419;BME280;21525;41.240;16.500;2022-07-29T00:48:34;101098.38;;;33.89;50.56
35419;BME280;21525;41.240;16.500;2022-07-29T00:51:05;101098.16;;;33.82;50.47
35419;BME280;21525;41.240;16.500;2022-07-29T00:53:31;101092.50;;;33.93;50.72
35419;BME280;21525;41.240;16.500;2022-07-29T00:55:58;101093.41;;;33.76;51.00
35419;BME280;21525;41.240;16.500;2022-07-29T00:58:24;101092.47;;;33.59;50.81
35419;BME280;21525;41.240;16.500;2022-07-29T01:00:51;101081.69;;;33.59;51.06
35419;BME280;21525;41.240;16.500;2022-07-29T01:03:18;101082.56;;;33.68;50.95
35419;BME280;21525;41.240;16.500;2022-07-29T01:05:45;101083.34;;;33.86;50.72
35419;BME280;21525;41.240;16.500;2022-07-29T01:08:12;101095.19;;;33.93;50.44
35419;BME280;21525;41.240;16.500;2022-07-29T01:10:40;101085.69;;;33.81;50.04
35419;BME280;21525;41.240;16.500;2022-07-29T01:13:07;101086.66;;;33.72;50.71
35419;BME280;21525;41.240;16.500;2022-07-29T01:15:41;101081.84;;;33.92;50.05
35419;BME280;21525;41.240;16.500;2022-07-29T01:18:16;101079.75;;;33.44;50.96
35419;BME280;21525;41.240;16.500;2022-07-29T01:29:59;101081.72;;;33.67;51.15
35419;BME280;21525;41.240;16.500;2022-07-29T01:32:32;101085.72;;;33.29;51.58
35419;BME280;21525;41.240;16.500;2022-07-29T01:35:10;101081.75;;;33.42;51.42
35419;BME280;21525;41.240;16.500;2022-07-29T01:40:21;101065.59;;;33.50;51.63
35419;BME280;21525;41.240;16.500;2022-07-29T01:42:51;101074.94;;;33.29;52.68
35419;BME280;21525;41.240;16.500;2022-07-29T01:45:25;101077.47;;;33.31;52.81
35419;BME280;21525;41.240;16.500;2022-07-29T01:48:12;101072.59;;;33.34;52.77
35419;BME280;21525;41.240;16.500;2022-07-29T01:50:46;101070.59;;;33.36;52.69
35419;BME280;21525;41.240;16.500;2022-07-29T01:53:21;101074.31;;;33.18;53.29
35419;BME280;21525;41.240;16.500;2022-07-29T01:55:48;101070.69;;;33.27;52.88
35419;BME280;21525;41.240;16.500;2022-07-29T01:58:17;101075.84;;;33.72;51.94
35419;BME280;21525;41.240;16.500;2022-07-29T02:00:45;101070.50;;;33.80;51.69
35419;BME280;21525;41.240;16.500;2022-07-29T02:03:12;101073.13;;;33.38;52.81
35419;BME280;21525;41.240;16.500;2022-07-29T02:05:42;101071.13;;;33.22;53.74
35419;BME280;21525;41.240;16.500;2022-07-29T02:08:09;101077.75;;;33.54;53.37
35419;BME280;21525;41.240;16.500;2022-07-29T02:10:38;101061.34;;;33.73;52.15
35419;BME280;21525;41.240;16.500;2022-07-29T02:13:05;101066.44;;;33.50;53.16
35419;BME280;21525;41.240;16.500;2022-07-29T02:15:34;101064.75;;;33.49;53.02
35419;BME280;21525;41.240;16.500;2022-07-29T02:18:04;101059.91;;;33.27;53.96
35419;BME280;21525;41.240;16.500;2022-07-29T02:20:31;101054.53;;;33.61;53.43
35419;BME280;21525;41.240;16.500;2022-07-29T02:22:59;101047.59;;;33.84;52.24
35419;BME280;21525;41.240;16.500;2022-07-29T02:25:26;101048.47;;;33.59;53.73
35419;BME280;21525;41.240;16.500;2022-07-29T02:27:53;101046.53;;;33.77;52.78
35419;BME280;21525;41.240;16.500;2022-07-29T02:30:21;101050.94;;;33.78;53.10
35419;BME280;21525;41.240;16.500;2022-07-29T02:32:48;101057.44;;;33.67;52.71
35419;BME280;21525;41.240;16.500;2022-07-29T02:35:15;101055.31;;;33.79;52.72
35419;BME280;21525;41.240;16.500;2022-07-29T02:37:44;101062.19;;;33.40;53.67
35419;BME280;21525;41.240;16.500;2022-07-29T02:40:11;101054.91;;;33.66;53.56
35419;BME280;21525;41.240;16.500;2022-07-29T02:42:39;101059.91;;;33.87;52.13
35419;BME280;21525;41.240;16.500;2022-07-29T02:45:07;101057.56;;;33.58;53.35
35419;BME280;21525;41.240;16.500;2022-07-29T02:47:38;101062.41;;;33.80;53.07
35419;BME280;21525;41.240;16.500;2022-07-29T02:50:20;101073.13;;;33.12;55.25
35419;BME280;21525;41.240;16.500;2022-07-29T02:52:58;101068.97;;;33.26;54.80
35419;BME280;21525;41.240;16.500;2022-07-29T02:55:31;101074.28;;;33.10;55.37
35419;BME280;21525;41.240;16.500;2022-07-29T02:58:05;101073.69;;;33.76;52.96
35419;BME280;21525;41.240;16.500;2022-07-29T03:00:36;101071.22;;;33.30;55.08
35419;BME280;21525;41.240;16.500;2022-07-29T03:03:13;101082.28;;;33.45;54.24
35419;BME280;21525;41.240;16.500;2022-07-29T03:05:40;101075.38;;;33.43;54.64
35419;BME280;21525;41.240;16.500;2022-07-29T03:08:09;101080.69;;;33.17;55.59
35419;BME280;21525;41.240;16.500;2022-07-29T03:10:37;101084.38;;;32.90;57.16
35419;BME280;21525;41.240;16.500;2022-07-29T03:13:04;101079.59;;;32.84;57.04
35419;BME280;21525;41.240;16.500;2022-07-29T03:15:31;101079.91;;;33.24;56.38
35419;BME280;21525;41.240;16.500;2022-07-29T03:17:58;101079.75;;;33.26;56.64
35419;BME280;21525;41.240;16.500;2022-07-29T03:20:24;101087.38;;;33.04;57.15
35419;BME280;21525;41.240;16.500;2022-07-29T03:22:51;101070.69;;;33.27;56.64
35419;BME280;21525;41.240;16.500;2022-07-29T03:25:18;101078.25;;;33.49;56.30
35419;BME280;21525;41.240;16.500;2022-07-29T03:27:46;101078.38;;;32.96;57.80
35419;BME280;21525;41.240;16.500;2022-07-29T03:30:13;101078.06;;;33.43;56.69
35419;BME280;21525;41.240;16.500;2022-07-29T03:32:41;101073.72;;;33.06;58.35
35419;BME280;21525;41.240;16.500;2022-07-29T03:35:07;101082.25;;;32.76;59.47
35419;BME280;21525;41.240;16.500;2022-07-29T03:37:33;101074.13;;;33.11;58.83
35419;BME280;21525;41.240;16.500;2022-07-29T03:40:05;101076.69;;;33.38;57.93
35419;BME280;21525;41.240;16.500;2022-07-29T03:42:33;101081.66;;;33.08;58.52
35419;BME280;21525;41.240;16.500;2022-07-29T03:45:07;101079.34;;;33.13;58.93
35419;BME280;21525;41.240;16.500;2022-07-29T03:47:39;101084.09;;;33.19;58.52
35419;BME280;21525;41.240;16.500;2022-07-29T03:50:07;101077.25;;;32.81;59.73
35419;BME280;21525;41.240;16.500;2022-07-29T03:52:34;101078.13;;;32.89;59.24
35419;BME280;21525;41.240;16.500;2022-07-29T03:55:01;101072.97;;;32.96;60.15
35419;BME280;21525;41.240;16.500;2022-07-29T03:57:28;101064.53;;;33.34;58.31
35419;BME280;21525;41.240;16.500;2022-07-29T03:59:55;101070.44;;;33.38;58.29
35419;BME280;21525;41.240;16.500;2022-07-29T04:02:22;101066.81;;;33.55;58.42
35419;BME280;21525;41.240;16.500;2022-07-29T04:04:48;101078.78;;;33.53;57.93
35419;BME280;21525;41.240;16.500;2022-07-29T04:07:15;101078.84;;;33.17;59.31
35419;BME280;21525;41.240;16.500;2022-07-29T04:09:41;101078.81;;;33.61;57.86
35419;BME280;21525;41.240;16.500;2022-07-29T04:12:07;101077.81;;;33.62;58.09
35419;BME280;21525;41.240;16.500;2022-07-29T04:14:34;101078.38;;;34.16;55.57
35419;BME280;21525;41.240;16.500;2022-07-29T04:17:02;101075.69;;;34.98;53.97
35419;BME280;21525;41.240;16.500;2022-07-29T04:19:28;101081.06;;;35.23;53.31
35419;BME280;21525;41.240;16.500;2022-07-29T04:21:54;101076.25;;;35.65;51.37
35419;BME280;21525;41.240;16.500;2022-07-29T04:24:20;101079.59;;;36.15;49.62
35419;BME280;21525;41.240;16.500;2022-07-29T04:26:46;101072.75;;;36.81;48.24
35419;BME280;21525;41.240;16.500;2022-07-29T04:29:12;101075.41;;;37.26;46.93
35419;BME280;21525;41.240;16.500;2022-07-29T04:31:40;101073.25;;;37.22;46.68
35419;BME280;21525;41.240;16.500;2022-07-29T04:34:07;101082.34;;;37.44;45.99
35419;BME280;21525;41.240;16.500;2022-07-29T04:36:33;101076.91;;;37.44;45.91
35419;BME280;21525;41.240;16.500;2022-07-29T04:38:58;101068.78;;;37.88;45.37
35419;BME280;21525;41.240;16.500;2022-07-29T04:41:24;101082.72;;;38.36;43.81
35419;BME280;21525;41.240;16.500;2022-07-29T04:43:50;101084.00;;;38.18;44.16
35419;BME280;21525;41.240;16.500;2022-07-29T04:46:16;101081.00;;;38.49;42.98
35419;BME280;21525;41.240;16.500;2022-07-29T04:48:42;101078.97;;;38.37;42.97
35419;BME280;21525;41.240;16.500;2022-07-29T04:51:10;101071.16;;;39.12;41.63
35419;BME280;21525;41.240;16.500;2022-07-29T04:53:36;101070.16;;;39.20;42.07
35419;BME280;21525;41.240;16.500;2022-07-29T04:56:02;101067.91;;;39.58;40.78
35419;BME280;21525;41.240;16.500;2022-07-29T04:58:28;101075.66;;;39.95;40.06
35419;BME280;21525;41.240;16.500;2022-07-29T05:00:54;101073.31;;;40.67;38.88
35419;BME280;21525;41.240;16.500;2022-07-29T05:03:19;101069.94;;;40.65;38.53
35419;BME280;21525;41.240;16.500;2022-07-29T05:05:45;101065.97;;;41.40;37.74
35419;BME280;21525;41.240;16.500;2022-07-29T05:08:11;101076.06;;;42.04;36.67
35419;BME280;21525;41.240;16.500;2022-07-29T05:10:37;101074.56;;;41.43;36.88
35419;BME280;21525;41.240;16.500;2022-07-29T05:13:05;101076.00;;;41.59;37.25
35419;BME280;21525;41.240;16.500;2022-07-29T05:15:35;101076.44;;;42.14;36.38
35419;BME280;21525;41.240;16.500;2022-07-29T05:18:02;101077.75;;;42.99;35.36
35419;BME280;21525;41.240;16.500;2022-07-29T05:20:28;101087.59;;;42.50;35.93
35419;BME280;21525;41.240;16.500;2022-07-29T05:22:56;101092.88;;;42.77;35.39
35419;BME280;21525;41.240;16.500;2022-07-29T05:25:26;101082.41;;;43.60;34.25
35419;BME280;21525;41.240;16.500;2022-07-29T05:27:53;101080.75;;;43.16;34.33
35419;BME280;21525;41.240;16.500;2022-07-29T05:30:20;101074.25;;;43.35;34.56
35419;BME280;21525;41.240;16.500;2022-07-29T05:32:46;101079.28;;;44.11;33.79
35419;BME280;21525;41.240;16.500;2022-07-29T05:35:13;101088.44;;;44.77;32.79
35419;BME280;21525;41.240;16.500;2022-07-29T05:37:40;101090.16;;;44.48;32.60
35419;BME280;21525;41.240;16.500;2022-07-29T05:40:07;101090.94;;;44.78;32.36
35419;BME280;21525;41.240;16.500;2022-07-29T05:42:34;101082.72;;;45.60;30.99
35419;BME280;21525;41.240;16.500;2022-07-29T05:45:00;101082.72;;;45.72;31.16
35419;BME280;21525;41.240;16.500;2022-07-29T05:47:27;101084.78;;;45.06;31.06
35419;BME280;21525;41.240;16.500;2022-07-29T05:49:53;101088.00;;;45.27;30.74
35419;BME280;21525;41.240;16.500;2022-07-29T05:52:20;101090.28;;;44.83;31.70
35419;BME280;21525;41.240;16.500;2022-07-29T05:54:46;101091.34;;;44.22;32.19
35419;BME280;21525;41.240;16.500;2022-07-29T05:57:20;101084.78;;;44.23;31.88
35419;BME280;21525;41.240;16.500;2022-07-29T05:59:46;101093.97;;;43.99;32.97
35419;BME280;21525;41.240;16.500;2022-07-29T06:02:13;101095.72;;;43.56;33.91
35419;BME280;21525;41.240;16.500;2022-07-29T06:04:39;101087.00;;;43.84;34.00
35419;BME280;21525;41.240;16.500;2022-07-29T06:07:04;101093.94;;;43.26;34.51
35419;BME280;21525;41.240;16.500;2022-07-29T06:09:31;101098.34;;;42.77;35.69
35419;BME280;21525;41.240;16.500;2022-07-29T06:11:57;101102.72;;;43.09;35.59
35419;BME280;21525;41.240;16.500;2022-07-29T06:14:24;101102.47;;;43.54;34.72
35419;BME280;21525;41.240;16.500;2022-07-29T06:16:50;101103.94;;;43.93;32.81
35419;BME280;21525;41.240;16.500;2022-07-29T06:19:16;101097.91;;;43.05;32.88
35419;BME280;21525;41.240;16.500;2022-07-29T06:21:43;101097.78;;;43.61;32.56
35419;BME280;21525;41.240;16.500;2022-07-29T06:24:13;101098.63;;;43.62;32.61
35419;BME280;21525;41.240;16.500;2022-07-29T06:26:39;101100.31;;;43.81;32.21
35419;BME280;21525;41.240;16.500;2022-07-29T06:29:06;101104.16;;;43.37;32.21
35419;BME280;21525;41.240;16.500;2022-07-29T06:31:32;101106.19;;;43.84;31.95
35419;BME280;21525;41.240;16.500;2022-07-29T06:33:58;101106.41;;;43.83;31.82
35419;BME280;21525;41.240;16.500;2022-07-29T06:36:24;101106.59;;;43.45;32.63
35419;BME280;21525;41.240;16.500;2022-07-29T06:38:50;101106.06;;;43.11;32.83
35419;BME280;21525;41.240;16.500;2022-07-29T06:41:16;101116.00;;;42.05;34.63
35419;BME280;21525;41.240;16.500;2022-07-29T06:43:43;101113.28;;;41.91;35.44
35419;BME280;21525;41.240;16.500;2022-07-29T06:46:12;101111.72;;;41.57;36.53
35419;BME280;21525;41.240;16.500;2022-07-29T06:48:39;101119.53;;;42.88;35.10
35419;BME280;21525;41.240;16.500;2022-07-29T06:51:06;101117.63;;;41.35;37.79
35419;BME280;21525;41.240;16.500;2022-07-29T06:53:33;101119.38;;;41.93;37.00
35419;BME280;21525;41.240;16.500;2022-07-29T06:56:00;101116.84;;;41.99;37.56
35419;BME280;21525;41.240;16.500;2022-07-29T06:58:27;101127.88;;;41.66;37.95
35419;BME280;21525;41.240;16.500;2022-07-29T07:00:57;101127.41;;;41.88;37.55
35419;BME280;21525;41.240;16.500;2022-07-29T07:03:23;101124.91;;;41.80;37.92
35419;BME280;21525;41.240;16.500;2022-07-29T07:05:50;101136.22;;;40.52;39.25
35419;BME280;21525;41.240;16.500;2022-07-29T07:08:17;101131.06;;;40.83;39.40
35419;BME280;21525;41.240;16.500;2022-07-29T07:10:45;101134.63;;;41.04;38.79
35419;BME280;21525;41.240;16.500;2022-07-29T07:13:11;101140.13;;;39.88;40.02
35419;BME280;21525;41.240;16.500;2022-07-29T07:15:37;101143.56;;;38.92;43.22
35419;BME280;21525;41.240;16.500;2022-07-29T07:18:05;101144.16;;;38.66;42.48
35419;BME280;21525;41.240;16.500;2022-07-29T07:20:34;101144.25;;;39.22;42.81
35419;BME280;21525;41.240;16.500;2022-07-29T07:23:01;101138.56;;;39.45;41.76
35419;BME280;21525;41.240;16.500;2022-07-29T07:25:27;101153.81;;;38.39;42.34
35419;BME280;21525;41.240;16.500;2022-07-29T07:27:53;101159.13;;;38.26;42.67
35419;BME280;21525;41.240;16.500;2022-07-29T07:30:19;101158.50;;;39.24;42.08
35419;BME280;21525;41.240;16.500;2022-07-29T07:32:45;101168.63;;;38.66;45.10
35419;BME280;21525;41.240;16.500;2022-07-29T07:35:11;101149.28;;;39.81;42.75
35419;BME280;21525;41.240;16.500;2022-07-29T07:37:37;101158.41;;;39.39;43.86
35419;BME280;21525;41.240;16.500;2022-07-29T07:40:07;101159.91;;;40.51;41.88
35419;BME280;21525;41.240;16.500;2022-07-29T07:42:32;101171.25;;;40.55;42.26
35419;BME280;21525;41.240;16.500;2022-07-29T07:44:59;101167.34;;;40.84;42.12
35419;BME280;21525;41.240;16.500;2022-07-29T07:47:25;101163.81;;;41.43;40.93
35419;BME280;21525;41.240;16.500;2022-07-29T07:49:51;101167.25;;;40.64;42.41
35419;BME280;21525;41.240;16.500;2022-07-29T07:52:19;101179.13;;;39.40;45.47
35419;BME280;21525;41.240;16.500;2022-07-29T07:54:45;101172.25;;;39.72;46.16
35419;BME280;21525;41.240;16.500;2022-07-29T07:57:12;101185.78;;;38.08;51.85
35419;BME280;21525;41.240;16.500;2022-07-29T07:59:38;101179.44;;;38.15;52.05
35419;BME280;21525;41.240;16.500;2022-07-29T08:02:05;101192.38;;;37.46;54.83
35419;BME280;21525;41.240;16.500;2022-07-29T08:04:32;101182.63;;;37.14;56.20
35419;BME280;21525;41.240;16.500;2022-07-29T08:06:58;101186.84;;;37.40;56.07
35419;BME280;21525;41.240;16.500;2022-07-29T08:09:26;101186.34;;;36.67;59.70
35419;BME280;21525;41.240;16.500;2022-07-29T08:11:52;101184.34;;;36.30;61.07
35419;BME280;21525;41.240;16.500;2022-07-29T08:14:19;101175.59;;;37.80;56.67
35419;BME280;21525;41.240;16.500;2022-07-29T08:16:46;101186.16;;;36.38;61.16
35419;BME280;21525;41.240;16.500;2022-07-29T08:19:12;101189.19;;;37.43;58.48
35419;BME280;21525;41.240;16.500;2022-07-29T08:21:38;101188.53;;;37.18;59.51
35419;BME280;21525;41.240;16.500;2022-07-29T08:24:04;101187.00;;;36.70;59.12
35419;BME280;21525;41.240;16.500;2022-07-29T08:26:48;101180.31;;;37.49;56.68
35419;BME280;21525;41.240;16.500;2022-07-29T08:29:14;101183.44;;;37.75;55.70
35419;BME280;21525;41.240;16.500;2022-07-29T08:31:42;101192.19;;;37.48;57.48
35419;BME280;21525;41.240;16.500;2022-07-29T08:34:08;101181.88;;;37.28;57.50
35419;BME280;21525;41.240;16.500;2022-07-29T08:36:34;101190.47;;;36.55;58.25
35419;BME280;21525;41.240;16.500;2022-07-29T08:39:00;101190.16;;;36.50;60.29
35419;BME280;21525;41.240;16.500;2022-07-29T08:41:27;101193.31;;;36.62;61.20
35419;BME280;21525;41.240;16.500;2022-07-29T08:43:53;101194.94;;;36.40;62.74
35419;BME280;21525;41.240;16.500;2022-07-29T08:46:20;101196.19;;;36.91;61.74
35419;BME280;21525;41.240;16.500;2022-07-29T08:48:46;101186.47;;;37.80;57.35
35419;BME280;21525;41.240;16.500;2022-07-29T08:51:15;101188.91;;;37.52;57.71
35419;BME280;21525;41.240;16.500;2022-07-29T08:53:42;101191.13;;;36.57;58.63
35419;BME280;21525;41.240;16.500;2022-07-29T08:56:11;101193.84;;;36.88;56.65
35419;BME280;21525;41.240;16.500;2022-07-29T08:58:39;101188.22;;;38.03;52.49
35419;BME280;21525;41.240;16.500;2022-07-29T09:01:06;101188.44;;;38.30;51.37
35419;BME280;21525;41.240;16.500;2022-07-29T09:03:34;101183.56;;;37.82;52.01
35419;BME280;21525;41.240;16.500;2022-07-29T09:06:02;101185.91;;;36.48;46.08
35419;BME280;21525;41.240;16.500;2022-07-29T09:08:30;101189.38;;;36.95;50.49
35419;BME280;21525;41.240;16.500;2022-07-29T09:10:57;101183.25;;;37.77;41.18
35419;BME280;21525;41.240;16.500;2022-07-29T09:13:23;101179.16;;;37.95;41.91
35419;BME280;21525;41.240;16.500;2022-07-29T09:15:50;101185.00;;;36.94;48.87
35419;BME280;21525;41.240;16.500;2022-07-29T09:18:40;101189.13;;;36.51;57.34
35419;BME280;21525;41.240;16.500;2022-07-29T09:21:09;101182.88;;;37.65;52.16
35419;BME280;21525;41.240;16.500;2022-07-29T09:26:39;101185.41;;;36.52;55.36
35419;BME280;21525;41.240;16.500;2022-07-29T09:29:23;101186.75;;;36.09;58.08
35419;BME280;21525;41.240;16.500;2022-07-29T09:31:51;101178.13;;;37.67;57.07
35419;BME280;21525;41.240;16.500;2022-07-29T09:34:26;101183.66;;;37.36;57.13
35419;BME280;21525;41.240;16.500;2022-07-29T09:36:54;101182.91;;;37.42;58.01
35419;BME280;21525;41.240;16.500;2022-07-29T09:39:35;101185.94;;;36.00;61.04
35419;BME280;21525;41.240;16.500;2022-07-29T09:42:06;101187.88;;;36.31;60.51
35419;BME280;21525;41.240;16.500;2022-07-29T09:44:47;101188.28;;;37.05;57.95
35419;BME280;21525;41.240;16.500;2022-07-29T09:47:14;101195.47;;;35.80;64.07
35419;BME280;21525;41.240;16.500;2022-07-29T09:49:58;101200.66;;;36.06;63.77
35419;BME280;21525;41.240;16.500;2022-07-29T09:52:29;101186.66;;;35.70;62.76
35419;BME280;21525;41.240;16.500;2022-07-29T09:55:05;101187.00;;;35.67;65.68
35419;BME280;21525;41.240;16.500;2022-07-29T09:57:31;101182.16;;;36.57;62.46
35419;BME280;21525;41.240;16.500;2022-07-29T10:00:09;101194.69;;;36.11;62.74
35419;BME280;21525;41.240;16.500;2022-07-29T10:02:39;101185.88;;;36.17;59.40
35419;BME280;21525;41.240;16.500;2022-07-29T10:05:26;101187.09;;;37.30;57.43
35419;BME280;21525;41.240;16.500;2022-07-29T10:07:55;101186.38;;;37.36;57.19
35419;BME280;21525;41.240;16.500;2022-07-29T10:13:04;101183.69;;;36.12;62.61
35419;BME280;21525;41.240;16.500;2022-07-29T10:15:31;101183.16;;;36.17;59.10
35419;BME280;21525;41.240;16.500;2022-07-29T10:17:59;101183.34;;;36.07;63.60
35419;BME280;21525;41.240;16.500;2022-07-29T10:20:26;101177.56;;;36.57;60.51
35419;BME280;21525;41.240;16.500;2022-07-29T10:22:53;101185.75;;;36.49;60.34
35419;BME280;21525;41.240;16.500;2022-07-29T10:25:20;101181.31;;;36.25;60.51
35419;BME280;21525;41.240;16.500;2022-07-29T10:27:47;101185.16;;;35.19;69.56
35419;BME280;21525;41.240;16.500;2022-07-29T10:30:15;101183.00;;;35.39;65.32
35419;BME280;21525;41.240;16.500;2022-07-29T10:44:07;101175.53;;;35.24;69.70
35419;BME280;21525;41.240;16.500;2022-07-29T10:46:39;101181.63;;;35.43;67.15
35419;BME280;21525;41.240;16.500;2022-07-29T10:49:27;101177.94;;;35.35;69.54
35419;BME280;21525;41.240;16.500;2022-07-29T10:54:47;101167.31;;;36.06;67.65
35419;BME280;21525;41.240;16.500;2022-07-29T11:07:32;101156.28;;;36.07;67.59
35419;BME280;21525;41.240;16.500;2022-07-29T11:15:22;101144.25;;;35.14;73.32
35419;BME280;21525;41.240;16.500;2022-07-29T11:20:42;101136.72;;;35.97;68.80
35419;BME280;21525;41.240;16.500;2022-07-29T11:34:17;101141.72;;;35.53;72.04
35419;BME280;21525;41.240;16.500;2022-07-29T11:47:23;101151.31;;;34.66;81.05
35419;BME280;21525;41.240;16.500;2022-07-29T11:49:50;101149.94;;;34.78;80.70
35419;BME280;21525;41.240;16.500;2022-07-29T11:52:18;101135.22;;;34.48;81.88
35419;BME280;21525;41.240;16.500;2022-07-29T11:54:44;101140.03;;;35.11;79.29
35419;BME280;21525;41.240;16.500;2022-07-29T11:57:13;101132.38;;;34.08;82.42
35419;BME280;21525;41.240;16.500;2022-07-29T11:59:42;101134.19;;;34.49;82.72
35419;BME280;21525;41.240;16.500;2022-07-29T12:02:08;101138.31;;;34.69;80.50
35419;BME280;21525;41.240;16.500;2022-07-29T12:04:54;101137.97;;;35.70;75.59
35419;BME280;21525;41.240;16.500;2022-07-29T12:07:30;101139.50;;;35.56;75.98
35419;BME280;21525;41.240;16.500;2022-07-29T12:09:56;101138.38;;;33.93;86.11
35419;BME280;21525;41.240;16.500;2022-07-29T12:12:22;101140.44;;;34.42;86.27
35419;BME280;21525;41.240;16.500;2022-07-29T12:14:48;101139.66;;;34.65;82.90
35419;BME280;21525;41.240;16.500;2022-07-29T12:17:34;101144.88;;;34.59;83.51
35419;BME280;21525;41.240;16.500;2022-07-29T12:20:03;101142.06;;;34.93;82.05
35419;BME280;21525;41.240;16.500;2022-07-29T12:22:31;101135.63;;;34.86;82.10
35419;BME280;21525;41.240;16.500;2022-07-29T12:25:03;101136.28;;;35.69;75.75
35419;BME280;21525;41.240;16.500;2022-07-29T12:27:29;101136.00;;;35.07;77.70
35419;BME280;21525;41.240;16.500;2022-07-29T12:30:04;101135.13;;;35.47;76.18
35419;BME280;21525;41.240;16.500;2022-07-29T12:32:37;101147.25;;;36.23;71.51
35419;BME280;21525;41.240;16.500;2022-07-29T12:35:05;101130.03;;;35.68;73.05
35419;BME280;21525;41.240;16.500;2022-07-29T12:37:36;101151.22;;;34.33;77.19
35419;BME280;21525;41.240;16.500;2022-07-29T12:40:03;101139.06;;;35.37;74.16
35419;BME280;21525;41.240;16.500;2022-07-29T12:42:31;101135.66;;;35.02;75.24
35419;BME280;21525;41.240;16.500;2022-07-29T12:44:57;101141.28;;;34.42;77.52
35419;BME280;21525;41.240;16.500;2022-07-29T12:47:23;101143.50;;;34.13;80.24
35419;BME280;21525;41.240;16.500;2022-07-29T12:49:50;101146.94;;;33.89;77.65
35419;BME280;21525;41.240;16.500;2022-07-29T12:52:34;101157.00;;;34.13;77.36
35419;BME280;21525;41.240;16.500;2022-07-29T12:55:01;101149.81;;;34.88;72.10
35419;BME280;21525;41.240;16.500;2022-07-29T12:57:28;101151.13;;;35.89;65.96
35419;BME280;21525;41.240;16.500;2022-07-29T13:00:06;101147.81;;;34.90;67.58
35419;BME280;21525;41.240;16.500;2022-07-29T13:02:40;101153.19;;;35.71;63.28
35419;BME280;21525;41.240;16.500;2022-07-29T13:05:07;101150.38;;;35.32;65.51
35419;BME280;21525;41.240;16.500;2022-07-29T13:07:34;101150.59;;;34.14;68.26
35419;BME280;21525;41.240;16.500;2022-07-29T13:10:14;101153.16;;;34.23;66.77
35419;BME280;21525;41.240;16.500;2022-07-29T13:13:04;101143.44;;;34.97;67.54
35419;BME280;21525;41.240;16.500;2022-07-29T13:15:32;101143.97;;;34.00;72.58
35419;BME280;21525;41.240;16.500;2022-07-29T13:17:58;101142.31;;;34.57;71.00
35419;BME280;21525;41.240;16.500;2022-07-29T13:20:25;101132.69;;;34.04;75.16
35419;BME280;21525;41.240;16.500;2022-07-29T13:22:53;101135.69;;;33.67;81.01
35419;BME280;21525;41.240;16.500;2022-07-29T13:25:29;101134.13;;;33.91;81.52
35419;BME280;21525;41.240;16.500;2022-07-29T13:27:56;101120.63;;;35.32;74.82
35419;BME280;21525;41.240;16.500;2022-07-29T13:30:22;101129.13;;;34.38;80.34
35419;BME280;21525;41.240;16.500;2022-07-29T13:32:49;101133.19;;;34.50;79.70
35419;BME280;21525;41.240;16.500;2022-07-29T13:35:15;101118.75;;;34.92;77.15
35419;BME280;21525;41.240;16.500;2022-07-29T13:37:42;101123.09;;;34.18;80.54
35419;BME280;21525;41.240;16.500;2022-07-29T13:40:09;101122.72;;;33.71;85.60
35419;BME280;21525;41.240;16.500;2022-07-29T13:42:35;101119.19;;;34.13;83.67
35419;BME280;21525;41.240;16.500;2022-07-29T13:45:02;101113.72;;;33.88;86.27
35419;BME280;21525;41.240;16.500;2022-07-29T13:47:28;101125.78;;;34.77;80.49
35419;BME280;21525;41.240;16.500;2022-07-29T13:49:54;101119.34;;;34.37;81.28
35419;BME280;21525;41.240;16.500;2022-07-29T13:52:21;101113.69;;;35.05;78.77
35419;BME280;21525;41.240;16.500;2022-07-29T13:54:47;101105.06;;;35.26;78.01
35419;BME280;21525;41.240;16.500;2022-07-29T13:57:13;101123.03;;;33.94;81.85
35419;BME280;21525;41.240;16.500;2022-07-29T13:59:40;101115.81;;;34.02;82.93